Time;durP1;ratioP1;P1;durP2;ratioP2;P2;SDS_P1;SDS_P2;PMS_P1;PMS_P2;Temp;Humidity;BMP_temperature;BMP_pressure;BME280_temperature;BME280_humidity;BME280_pressure;Samples;Min_cycle;Max_cycle;Signal;HPM_P1;HPM_P2
2023/03/10 00:00:03;;;;;;;44.33;18.75;;;15.40;99.90;;;;;;5031072;28;20064;-75
2023/03/10 00:03:09;;;;;;;48.35;18.77;;;15.50;99.90;;;;;;5031045;28;20121;-74
2023/03/10 00:06:16;;;;;;;44.72;19.85;;;15.40;99.90;;;;;;5031092;28;20099;-75
2023/03/10 00:09:20;;;;;;;49.22;20.90;;;15.40;99.90;;;;;;5030491;28;20068;-74
2023/03/10 00:12:26;;;;;;;53.17;20.65;;;15.40;99.90;;;;;;5030681;28;20041;-75
2023/03/10 00:15:30;;;;;;;48.95;19.65;;;15.30;99.90;;;;;;5030257;28;20048;-74
2023/03/10 00:18:34;;;;;;;53.30;20.58;;;15.30;99.90;;;;;;5030180;28;20052;-75
2023/03/10 00:21:38;;;;;;;37.63;18.17;;;15.30;99.90;;;;;;5030189;28;20052;-75
2023/03/10 00:24:42;;;;;;;43.15;19.10;;;15.30;99.90;;;;;;5030294;28;20056;-75
2023/03/10 00:27:46;;;;;;;41.08;17.80;;;15.30;99.90;;;;;;5030258;28;20037;-75
2023/03/10 00:30:57;;;;;;;50.35;19.05;;;15.30;99.90;;;;;;5030429;28;20053;-75
2023/03/10 00:34:01;;;;;;;40.78;18.40;;;15.30;99.90;;;;;;5029552;28;20619;-75
2023/03/10 00:37:05;;;;;;;38.92;16.52;;;15.30;99.90;;;;;;5029397;28;20437;-75
2023/03/10 00:40:13;;;;;;;45.03;17.55;;;15.30;99.90;;;;;;5028996;28;20060;-74
2023/03/10 00:43:16;;;;;;;46.80;14.65;;;15.30;99.90;;;;;;5017877;28;20045;-74
2023/03/10 00:46:20;;;;;;;25.92;8.60;;;15.30;99.90;;;;;;5030268;28;20040;-74
2023/03/10 00:49:24;;;;;;;32.70;8.45;;;15.30;99.90;;;;;;5029891;28;20049;-74
2023/03/10 00:52:32;;;;;;;30.42;7.88;;;15.30;99.90;;;;;;5030135;28;20048;-74
2023/03/10 00:55:36;;;;;;;22.13;7.57;;;15.40;99.90;;;;;;5029222;28;20620;-74
2023/03/10 00:58:41;;;;;;;27.67;8.00;;;15.40;99.90;;;;;;5033564;28;20057;-75
2023/03/10 01:01:45;;;;;;;24.48;7.55;;;15.40;99.90;;;;;;5033921;28;20052;-74
2023/03/10 01:04:49;;;;;;;22.05;6.90;;;15.40;99.90;;;;;;5032526;28;20056;-74
2023/03/10 01:07:53;;;;;;;20.52;6.63;;;15.40;99.90;;;;;;5021100;28;20036;-74
2023/03/10 01:10:57;;;;;;;20.63;4.95;;;15.40;99.90;;;;;;5032803;28;20056;-74
2023/03/10 01:14:03;;;;;;;18.00;5.40;;;15.40;99.90;;;;;;5033514;28;20465;-76
2023/03/10 01:17:07;;;;;;;17.25;4.63;;;15.30;99.90;;;;;;5032517;28;20040;-75
2023/03/10 01:20:13;;;;;;;20.63;5.47;;;15.40;99.90;;;;;;5033595;28;20057;-75
2023/03/10 01:23:21;;;;;;;15.88;5.45;;;15.40;99.90;;;;;;5032482;28;20427;-74
2023/03/10 01:26:27;;;;;;;28.65;7.13;;;15.40;99.90;;;;;;5032314;28;20120;-74
2023/03/10 01:29:34;;;;;;;22.92;7.47;;;15.40;99.90;;;;;;5032945;28;20628;-74
2023/03/10 01:32:39;;;;;;;23.90;8.45;;;15.40;99.90;;;;;;5033297;28;20041;-75
2023/03/10 01:35:43;;;;;;;25.17;9.20;;;15.40;99.90;;;;;;5020488;28;20512;-75
2023/03/10 01:38:48;;;;;;;28.50;8.82;;;15.40;99.90;;;;;;5031952;28;20385;-74
2023/03/10 01:41:52;;;;;;;25.67;8.80;;;15.30;99.90;;;;;;5031907;28;20049;-75
2023/03/10 01:45:28;;;;;;;40.78;9.57;;;15.40;99.90;;;;;;5031787;28;20421;-74
2023/03/10 01:48:35;;;;;;;24.15;8.63;;;15.30;99.90;;;;;;5032142;28;20040;-75
2023/03/10 01:51:44;;;;;;;33.92;10.68;;;15.30;99.90;;;;;;5031731;28;20045;-75
2023/03/10 01:55:05;;;;;;;29.08;11.15;;;15.30;99.90;;;;;;5031922;28;20045;-74
2023/03/10 01:58:10;;;;;;;29.20;11.25;;;15.40;99.90;;;;;;5031720;28;20448;-74
2023/03/10 02:01:15;;;;;;;32.95;10.93;;;15.30;99.90;;;;;;5054938;28;20040;-74
2023/03/10 02:04:44;;;;;;;31.65;10.20;;;15.30;99.90;;;;;;5032415;28;20480;-74
2023/03/10 02:07:48;;;;;;;33.85;9.80;;;15.20;99.90;;;;;;5031788;28;20793;-74
2023/03/10 02:10:53;;;;;;;20.58;8.98;;;15.30;99.90;;;;;;5032239;28;20045;-74
2023/03/10 02:14:03;;;;;;;23.80;8.45;;;15.30;99.90;;;;;;5031127;28;20044;-74
2023/03/10 02:17:12;;;;;;;18.85;7.03;;;15.30;99.90;;;;;;5031232;28;20057;-74
2023/03/10 02:20:42;;;;;;;22.83;6.78;;;15.30;99.90;;;;;;5031413;28;20052;-74
2023/03/10 02:24:00;;;;;;;25.80;6.63;;;15.30;99.90;;;;;;5032053;28;20041;-74
2023/03/10 02:27:27;;;;;;;16.75;5.93;;;15.30;99.90;;;;;;5030980;28;20052;-74
2023/03/10 02:30:42;;;;;;;16.02;5.63;;;15.30;99.90;;;;;;5032057;28;20052;-74
2023/03/10 02:33:47;;;;;;;14.75;4.65;;;15.30;99.90;;;;;;5031098;28;20036;-74
2023/03/10 02:36:51;;;;;;;12.32;4.25;;;15.30;99.90;;;;;;5031522;28;20068;-74
2023/03/10 02:39:56;;;;;;;16.30;4.82;;;15.30;99.90;;;;;;5030815;28;20425;-74
2023/03/10 02:43:10;;;;;;;12.88;4.95;;;15.30;99.90;;;;;;5031525;28;20041;-74
2023/03/10 02:46:15;;;;;;;21.85;5.00;;;15.30;99.90;;;;;;5030886;28;20068;-74
2023/03/10 02:49:23;;;;;;;14.98;4.45;;;15.30;99.90;;;;;;5031048;28;20035;-75
2023/03/10 02:52:38;;;;;;;16.55;4.93;;;15.30;99.90;;;;;;5030873;28;20052;-74
2023/03/10 02:55:42;;;;;;;12.80;4.72;;;15.30;99.90;;;;;;5030327;28;20500;-74
2023/03/10 02:58:47;;;;;;;21.95;6.18;;;15.30;99.90;;;;;;5030409;28;20052;-75
2023/03/10 03:01:50;;;;;;;16.77;5.55;;;15.30;99.90;;;;;;5030796;28;20393;-74
2023/03/10 03:04:56;;;;;;;15.35;5.38;;;15.20;99.90;;;;;;5031138;28;20045;-74
2023/03/10 03:08:00;;;;;;;14.30;5.60;;;15.20;99.90;;;;;;5031253;28;20048;-74
2023/03/10 03:11:04;;;;;;;16.52;6.10;;;15.20;99.90;;;;;;5030487;28;20044;-73
2023/03/10 03:14:09;;;;;;;15.60;5.03;;;15.20;99.90;;;;;;5030417;28;20405;-74
2023/03/10 03:17:13;;;;;;;10.40;4.80;;;15.20;99.90;;;;;;5030317;28;20469;-74
2023/03/10 03:20:37;;;;;;;12.88;5.65;;;15.20;99.90;;;;;;5029983;28;20052;-74
2023/03/10 03:23:43;;;;;;;14.63;4.93;;;15.20;99.90;;;;;;5030352;28;20416;-73
2023/03/10 03:26:47;;;;;;;16.98;5.30;;;15.20;99.90;;;;;;5030912;28;20056;-75
2023/03/10 03:29:56;;;;;;;17.02;5.43;;;15.20;99.90;;;;;;5019320;28;20520;-75
2023/03/10 03:33:02;;;;;;;16.58;5.07;;;15.20;99.90;;;;;;5030760;28;20401;-74
2023/03/10 03:36:07;;;;;;;15.15;5.18;;;15.30;99.90;;;;;;5030775;28;20041;-75
2023/03/10 03:39:16;;;;;;;14.65;5.13;;;15.20;99.90;;;;;;5030493;28;20052;-73
2023/03/10 03:42:21;;;;;;;16.45;5.05;;;15.20;99.90;;;;;;5030200;28;20048;-74
2023/03/10 03:45:32;;;;;;;11.60;5.07;;;15.30;99.90;;;;;;5029787;28;20036;-74
2023/03/10 03:48:37;;;;;;;10.95;4.55;;;15.20;99.90;;;;;;5030106;28;20052;-74
2023/03/10 03:51:45;;;;;;;18.52;6.30;;;15.20;99.90;;;;;;5029878;28;20049;-73
2023/03/10 03:54:49;;;;;;;15.52;5.50;;;15.30;99.90;;;;;;5030546;28;20060;-74
2023/03/10 03:57:53;;;;;;;20.60;5.53;;;15.30;99.90;;;;;;5030283;28;20045;-74
2023/03/10 04:00:57;;;;;;;17.17;6.07;;;15.30;99.90;;;;;;5029401;28;20048;-74
2023/03/10 04:04:02;;;;;;;18.02;5.88;;;15.30;99.90;;;;;;5029898;28;20076;-75
2023/03/10 04:07:06;;;;;;;12.77;6.00;;;15.30;99.90;;;;;;5029732;28;20048;-76
2023/03/10 04:10:14;;;;;;;31.65;7.15;;;15.30;99.90;;;;;;5018442;28;20076;-74
2023/03/10 04:13:19;;;;;;;30.63;7.32;;;15.30;99.90;;;;;;5029561;28;20397;-74
2023/03/10 04:16:23;;;;;;;22.50;7.45;;;15.30;99.90;;;;;;5029590;28;20048;-75
2023/03/10 04:19:27;;;;;;;26.33;7.72;;;15.40;99.90;;;;;;5029457;28;20526;-76
2023/03/10 04:22:37;;;;;;;35.10;7.03;;;15.40;99.90;;;;;;5029717;28;20393;-74
2023/03/10 04:25:42;;;;;;;32.95;7.20;;;15.40;99.90;;;;;;5029439;28;20044;-74
2023/03/10 04:28:47;;;;;;;21.40;7.75;;;15.40;99.90;;;;;;5029398;28;20041;-75
2023/03/10 04:31:54;;;;;;;26.25;8.02;;;15.40;99.90;;;;;;5031172;28;20048;-74
2023/03/10 04:34:58;;;;;;;25.52;8.57;;;15.40;99.90;;;;;;5033236;28;20057;-73
2023/03/10 04:38:02;;;;;;;19.60;7.97;;;15.40;99.90;;;;;;5032944;28;20581;-74
2023/03/10 04:41:08;;;;;;;22.33;7.68;;;15.30;99.90;;;;;;5033227;28;20048;-75
2023/03/10 04:44:16;;;;;;;26.05;7.55;;;15.40;99.90;;;;;;5034091;28;20056;-75
2023/03/10 04:47:21;;;;;;;20.92;6.90;;;15.40;99.90;;;;;;5033285;28;20044;-75
2023/03/10 04:50:25;;;;;;;24.27;7.82;;;15.30;99.90;;;;;;5033911;28;20516;-75
2023/03/10 04:53:31;;;;;;;25.52;6.97;;;15.30;99.90;;;;;;5032957;28;20052;-75
2023/03/10 04:56:35;;;;;;;19.48;6.30;;;15.30;99.90;;;;;;5032881;28;20052;-75
2023/03/10 04:59:40;;;;;;;19.85;7.10;;;15.30;99.90;;;;;;5032824;28;20064;-75
2023/03/10 05:02:45;;;;;;;17.23;6.18;;;15.30;99.90;;;;;;5032668;28;20037;-75
2023/03/10 05:05:49;;;;;;;21.85;7.47;;;15.40;99.90;;;;;;5032911;28;20052;-75
2023/03/10 05:08:54;;;;;;;19.02;7.03;;;15.30;99.90;;;;;;5032447;28;20044;-74
2023/03/10 05:12:00;;;;;;;11.85;4.65;;;15.30;99.90;;;;;;5032864;28;20052;-74
2023/03/10 05:15:09;;;;;;;13.70;5.70;;;15.30;99.90;;;;;;5032359;28;20490;-75
2023/03/10 05:18:13;;;;;;;19.60;5.13;;;15.20;99.90;;;;;;5032599;28;20048;-74
2023/03/10 05:21:17;;;;;;;17.35;5.05;;;15.30;99.90;;;;;;5032430;28;20108;-74
2023/03/10 05:24:23;;;;;;;12.25;4.57;;;15.30;99.90;;;;;;5032533;28;20048;-75
2023/03/10 05:27:27;;;;;;;8.30;3.83;;;15.20;99.90;;;;;;5033287;28;20057;-75
2023/03/10 05:30:31;;;;;;;9.77;3.85;;;15.30;99.90;;;;;;5032134;28;20048;-75
2023/03/10 05:33:36;;;;;;;11.65;4.53;;;15.30;99.90;;;;;;5020536;28;20049;-74
2023/03/10 05:36:41;;;;;;;13.98;4.93;;;15.40;99.90;;;;;;5032213;28;20044;-74
2023/03/10 05:39:45;;;;;;;13.23;4.75;;;16.30;99.90;;;;;;5032949;28;20064;-76
2023/03/10 05:42:54;;;;;;;14.00;6.05;;;15.30;99.90;;;;;;5033005;28;20040;-74
2023/03/10 05:46:00;;;;;;;12.93;6.10;;;15.30;99.90;;;;;;5033147;28;20049;-74
2023/03/10 05:49:07;;;;;;;12.13;5.32;;;15.30;99.90;;;;;;5043844;28;20049;-75
2023/03/10 05:52:11;;;;;;;16.77;5.82;;;15.30;99.90;;;;;;5032213;28;20048;-75
2023/03/10 05:55:18;;;;;;;22.70;7.28;;;15.30;99.90;;;;;;5032298;28;20056;-75
2023/03/10 05:58:24;;;;;;;19.67;6.95;;;15.30;99.90;;;;;;5032883;28;20049;-75
2023/03/10 06:01:29;;;;;;;26.60;6.20;;;15.30;99.90;;;;;;5031826;28;20064;-75
2023/03/10 06:04:33;;;;;;;21.85;6.43;;;15.30;99.90;;;;;;5032621;28;20044;-76
2023/03/10 06:07:37;;;;;;;28.00;6.85;;;15.30;99.90;;;;;;5032258;28;20045;-76
2023/03/10 06:10:41;;;;;;;24.85;8.13;;;15.30;99.90;;;;;;5032413;28;20040;-76
2023/03/10 06:13:45;;;;;;;25.38;6.90;;;15.30;99.90;;;;;;5032223;28;20064;-75
2023/03/10 06:16:51;;;;;;;25.88;7.03;;;15.40;99.90;;;;;;5032058;28;20056;-76
2023/03/10 06:19:55;;;;;;;19.77;6.25;;;15.40;99.90;;;;;;5032407;28;20048;-63
2023/03/10 06:22:59;;;;;;;28.63;8.57;;;15.40;99.90;;;;;;5030725;28;20052;-64
2023/03/10 06:26:06;;;;;;;24.95;8.55;;;15.50;99.90;;;;;;5031892;28;20139;-64
2023/03/10 06:29:10;;;;;;;35.75;9.27;;;15.50;99.90;;;;;;5031989;28;20390;-63
2023/03/10 06:32:15;;;;;;;23.38;9.00;;;15.50;99.90;;;;;;5031911;28;20501;-62
2023/03/10 06:35:18;;;;;;;33.92;9.55;;;15.50;99.90;;;;;;5031137;28;20052;-64
2023/03/10 06:38:22;;;;;;;30.50;8.88;;;15.60;99.90;;;;;;5031464;28;20056;-62
2023/03/10 06:41:26;;;;;;;26.45;8.30;;;15.60;99.90;;;;;;5031929;28;20580;-63
2023/03/10 06:44:32;;;;;;;21.40;7.30;;;15.60;99.90;;;;;;5031808;28;20048;-63
2023/03/10 06:47:35;;;;;;;28.63;8.68;;;15.60;99.90;;;;;;5031608;28;20044;-62
2023/03/10 06:50:41;;;;;;;27.10;8.10;;;15.70;99.90;;;;;;5031325;28;20040;-62
2023/03/10 06:53:47;;;;;;;27.05;7.60;;;15.80;99.90;;;;;;5029920;28;20048;-63
2023/03/10 06:56:51;;;;;;;16.85;6.45;;;15.80;99.90;;;;;;5031245;28;20044;-63
2023/03/10 06:59:55;;;;;;;13.75;4.88;;;15.90;99.90;;;;;;5031269;28;20057;-62
2023/03/10 07:02:59;;;;;;;9.52;4.40;;;16.10;99.90;;;;;;5031194;28;20040;-62
2023/03/10 07:06:04;;;;;;;15.40;5.72;;;16.30;99.90;;;;;;5030966;28;20048;-63
2023/03/10 07:09:08;;;;;;;19.75;7.45;;;16.70;99.90;;;;;;5030182;28;20045;-62
2023/03/10 07:12:12;;;;;;;22.58;7.03;;;16.80;99.90;;;;;;5031018;28;20485;-63
2023/03/10 07:15:17;;;;;;;16.33;6.68;;;16.90;99.90;;;;;;5031042;28;20052;-64
2023/03/10 07:18:21;;;;;;;32.70;7.32;;;16.80;99.90;;;;;;5030995;28;20044;-63
2023/03/10 07:21:25;;;;;;;18.98;6.07;;;16.70;99.90;;;;;;5031007;28;20056;-63
2023/03/10 07:24:29;;;;;;;25.90;6.95;;;16.70;99.90;;;;;;5031262;28;20044;-63
2023/03/10 07:27:33;;;;;;;24.35;7.32;;;16.60;99.90;;;;;;5030654;28;20048;-61
2023/03/10 07:30:38;;;;;;;28.58;8.15;;;16.70;99.90;;;;;;5030247;28;20049;-64
2023/03/10 07:33:42;;;;;;;30.60;7.85;;;16.70;99.90;;;;;;5030797;28;20048;-61
2023/03/10 07:36:46;;;;;;;21.33;6.13;;;16.80;99.90;;;;;;5030623;28;20048;-62
2023/03/10 07:39:53;;;;;;;24.48;6.57;;;16.80;99.90;;;;;;5030420;28;20056;-64
2023/03/10 07:42:57;;;;;;;22.08;7.40;;;17.00;99.90;;;;;;5030857;28;20044;-63
2023/03/10 07:46:07;;;;;;;22.40;7.03;;;17.10;99.90;;;;;;5029457;28;20064;-62
2023/03/10 07:49:11;;;;;;;19.77;5.72;;;17.20;99.90;;;;;;5030410;28;20044;-61
2023/03/10 07:52:17;;;;;;;23.77;6.13;;;17.20;99.90;;;;;;5030479;28;20444;-63
2023/03/10 07:55:21;;;;;;;27.58;7.90;;;17.30;99.90;;;;;;5030623;28;20052;-62
2023/03/10 07:58:26;;;;;;;28.65;8.85;;;17.40;99.90;;;;;;5030599;28;20052;-62
2023/03/10 08:01:30;;;;;;;29.95;8.20;;;17.50;99.90;;;;;;5030124;28;20373;-63
2023/03/10 08:04:34;;;;;;;56.80;10.73;;;17.50;99.90;;;;;;5030458;28;20040;-63
2023/03/10 08:07:38;;;;;;;37.13;8.45;;;17.60;99.90;;;;;;5033381;28;20448;-62
2023/03/10 08:10:42;;;;;;;70.43;10.18;;;17.60;99.90;;;;;;5034140;28;20060;-63
2023/03/10 08:13:47;;;;;;;23.88;6.40;;;17.70;99.90;;;;;;5034217;28;20044;-63
2023/03/10 08:16:51;;;;;;;24.63;6.60;;;17.70;99.90;;;;;;5034465;28;20044;-62
2023/03/10 08:19:57;;;;;;;27.02;5.65;;;17.70;99.90;;;;;;5034083;28;20060;-63
2023/03/10 08:23:02;;;;;;;26.73;6.60;;;17.70;99.90;;;;;;5034025;28;20509;-64
2023/03/10 08:26:09;;;;;;;35.80;7.28;;;17.70;99.90;;;;;;5034062;28;20053;-63
2023/03/10 08:29:13;;;;;;;36.88;7.55;;;17.60;99.90;;;;;;5034164;28;20048;-63
2023/03/10 08:32:18;;;;;;;17.00;5.18;;;17.60;99.90;;;;;;5034011;28;20049;-63
2023/03/10 08:35:23;;;;;;;27.80;6.20;;;17.50;99.90;;;;;;5034016;28;20060;-62
2023/03/10 08:38:26;;;;;;;34.53;7.13;;;17.60;99.90;;;;;;5033519;28;20048;-63
2023/03/10 08:41:33;;;;;;;25.92;6.03;;;17.60;99.90;;;;;;5033694;28;20100;-63
2023/03/10 08:44:37;;;;;;;21.83;5.78;;;17.60;99.90;;;;;;5034148;28;20057;-64
2023/03/10 08:47:42;;;;;;;24.65;5.43;;;17.60;99.90;;;;;;5033563;28;20508;-63
2023/03/10 08:50:45;;;;;;;22.10;6.07;;;17.60;99.90;;;;;;5033981;28;20068;-62
2023/03/10 08:53:50;;;;;;;21.30;5.15;;;17.60;99.90;;;;;;5033458;28;20048;-62
2023/03/10 08:56:55;;;;;;;22.00;5.57;;;17.70;99.90;;;;;;5033572;28;20056;-67
2023/03/10 08:59:59;;;;;;;25.08;6.07;;;17.70;99.90;;;;;;5033416;28;20216;-62
2023/03/10 09:03:03;;;;;;;28.58;6.13;;;17.70;99.90;;;;;;5033268;28;20417;-62
2023/03/10 09:06:07;;;;;;;38.95;7.10;;;17.70;99.90;;;;;;5033157;28;20049;-63
2023/03/10 09:09:11;;;;;;;36.25;7.15;;;17.80;99.90;;;;;;5033605;28;20048;-63
2023/03/10 09:12:15;;;;;;;34.55;6.38;;;17.80;99.90;;;;;;5032896;28;20060;-63
2023/03/10 09:15:20;;;;;;;19.33;5.40;;;17.90;99.90;;;;;;5033171;28;20056;-64
2023/03/10 09:18:24;;;;;;;55.20;7.43;;;17.90;99.90;;;;;;5032891;28;20072;-64
2023/03/10 09:21:30;;;;;;;28.73;5.70;;;17.90;99.90;;;;;;5032813;28;20143;-65
2023/03/10 09:24:34;;;;;;;54.78;8.57;;;18.00;99.90;;;;;;5033338;28;20044;-64
2023/03/10 09:27:38;;;;;;;40.45;9.38;;;18.00;99.90;;;;;;5033015;28;20513;-63
2023/03/10 09:30:42;;;;;;;24.17;6.90;;;18.00;99.90;;;;;;5032953;28;20048;-62
2023/03/10 09:33:47;;;;;;;29.73;6.32;;;18.00;99.90;;;;;;5032462;28;20060;-62
2023/03/10 09:36:51;;;;;;;29.33;5.45;;;18.00;99.90;;;;;;5032705;28;20064;-62
2023/03/10 09:39:55;;;;;;;18.73;4.85;;;18.10;99.90;;;;;;5032686;28;20052;-63
2023/03/10 09:43:04;;;;;;;32.15;6.97;;;18.10;99.90;;;;;;5032802;28;20048;-62
2023/03/10 09:46:51;;;;;;;32.90;6.20;;;18.30;99.90;;;;;;5031701;28;20056;-62
2023/03/10 09:50:20;;;;;;;22.45;5.85;;;18.60;99.90;;;;;;5032785;28;20504;-63
2023/03/10 09:53:39;;;;;;;26.90;6.25;;;18.80;99.90;;;;;;5032587;28;20048;-63
2023/03/10 09:56:43;;;;;;;36.67;6.40;;;18.80;99.90;;;;;;5032413;28;20045;-63
2023/03/10 09:59:50;;;;;;;27.73;6.47;;;18.80;99.90;;;;;;5032232;28;20065;-62
2023/03/10 10:03:22;;;;;;;32.13;6.35;;;18.70;99.90;;;;;;5031846;28;20501;-63
2023/03/10 10:06:34;;;;;;;22.65;5.78;;;18.60;99.90;;;;;;5032383;28;20040;-63
2023/03/10 10:10:03;;;;;;;25.33;6.03;;;18.50;99.90;;;;;;5032354;28;20090;-62
2023/03/10 10:13:13;;;;;;;32.90;6.05;;;18.50;99.90;;;;;;5032301;28;20045;-61
2023/03/10 10:16:35;;;;;;;28.85;6.90;;;18.50;99.90;;;;;;5031867;28;20398;-62
2023/03/10 10:19:39;;;;;;;23.45;5.78;;;18.50;99.90;;;;;;5031933;28;20524;-62
2023/03/10 10:22:44;;;;;;;35.22;6.13;;;18.40;99.90;;;;;;5032133;28;20040;-63
2023/03/10 10:25:48;;;;;;;34.72;7.13;;;18.40;99.90;;;;;;5031757;28;20048;-62
2023/03/10 10:29:03;;;;;;;22.45;6.50;;;18.30;99.90;;;;;;5031496;28;20041;-62
2023/03/10 10:32:15;;;;;;;34.92;8.48;;;18.20;99.90;;;;;;5031759;28;20052;-61
2023/03/10 10:35:22;;;;;;;21.77;5.57;;;18.30;99.90;;;;;;5031985;28;20151;-62
2023/03/10 10:38:29;;;;;;;31.40;6.50;;;18.30;99.90;;;;;;5031197;28;20036;-62
2023/03/10 10:41:33;;;;;;;23.77;5.53;;;18.30;99.90;;;;;;5030609;28;20045;-62
2023/03/10 10:44:43;;;;;;;22.20;6.35;;;18.50;99.90;;;;;;5031535;28;20045;-63
2023/03/10 10:47:50;;;;;;;29.02;6.90;;;18.50;99.90;;;;;;5030635;28;20176;-61
2023/03/10 10:50:54;;;;;;;24.40;5.70;;;18.70;99.90;;;;;;5031268;28;20044;-61
2023/03/10 10:54:05;;;;;;;22.45;6.32;;;18.70;99.90;;;;;;5031272;28;20040;-62
2023/03/10 10:57:27;;;;;;;35.20;7.63;;;18.60;99.90;;;;;;5031477;28;20123;-61
2023/03/10 11:00:36;;;;;;;30.65;6.07;;;18.50;99.90;;;;;;5031201;28;20053;-64
2023/03/10 11:03:43;;;;;;;25.52;6.65;;;18.40;99.90;;;;;;5031218;28;20409;-62
2023/03/10 11:06:48;;;;;;;25.73;6.68;;;18.20;99.90;;;;;;5030938;28;20048;-63
2023/03/10 11:09:55;;;;;;;29.88;6.13;;;18.20;99.90;;;;;;5031037;28;20036;-63
2023/03/10 11:13:08;;;;;;;25.20;7.05;;;18.20;99.90;;;;;;5031239;28;20047;-62
2023/03/10 11:16:30;;;;;;;25.75;6.63;;;18.30;99.90;;;;;;5030773;28;20045;-63
2023/03/10 11:19:34;;;;;;;24.55;6.63;;;18.40;99.90;;;;;;5030836;28;20056;-61
2023/03/10 11:22:48;;;;;;;30.58;7.38;;;18.50;99.90;;;;;;5030896;28;20497;-63
2023/03/10 11:26:24;;;;;;;29.02;6.70;;;18.50;99.90;;;;;;5030037;28;20063;-62
2023/03/10 11:29:53;;;;;;;32.40;6.18;;;18.70;99.90;;;;;;5030580;28;20405;-63
2023/03/10 11:33:06;;;;;;;21.77;5.97;;;18.80;99.90;;;;;;5030774;28;20072;-63
2023/03/10 11:36:43;;;;;;;16.00;5.05;;;18.80;99.90;;;;;;5029290;28;20056;-64
2023/03/10 11:40:06;;;;;;;25.98;5.95;;;18.80;99.90;;;;;;5027928;28;20049;-64
2023/03/10 11:43:13;;;;;;;23.48;6.22;;;18.80;99.90;;;;;;5029454;28;20581;-64
2023/03/10 11:46:20;;;;;;;17.45;5.32;;;18.70;99.90;;;;;;5030016;28;20108;-63
2023/03/10 11:49:33;;;;;;;19.83;6.15;;;18.70;99.90;;;;;;5029817;28;20052;-63
2023/03/10 11:52:37;;;;;;;28.50;7.15;;;18.60;99.90;;;;;;5030593;28;20048;-65
2023/03/10 11:55:43;;;;;;;28.30;7.00;;;18.60;99.90;;;;;;5030519;28;20048;-63
2023/03/10 11:59:00;;;;;;;33.72;6.20;;;18.40;99.90;;;;;;5030279;28;20048;-62
2023/03/10 12:02:15;;;;;;;29.00;5.75;;;18.30;99.90;;;;;;5030333;28;20044;-62
2023/03/10 12:05:22;;;;;;;24.65;5.88;;;18.20;99.90;;;;;;5030220;28;20541;-63
2023/03/10 12:08:34;;;;;;;26.48;5.82;;;18.10;99.90;;;;;;5030235;28;20057;-62
2023/03/10 12:11:38;;;;;;;29.15;6.68;;;17.90;99.90;;;;;;5030161;28;20036;-62
2023/03/10 12:14:44;;;;;;;25.30;6.50;;;17.80;99.90;;;;;;5030362;28;20049;-62
2023/03/10 12:17:50;;;;;;;23.10;6.35;;;17.70;99.90;;;;;;5029854;28;20052;-62
2023/03/10 12:21:16;;;;;;;22.58;6.50;;;17.60;99.90;;;;;;5030467;28;20064;-63
2023/03/10 12:24:42;;;;;;;25.85;6.72;;;17.50;99.90;;;;;;5030088;28;20061;-61
2023/03/10 12:28:15;;;;;;;23.70;7.50;;;17.40;99.90;;;;;;5030233;28;20397;-63
2023/03/10 12:31:44;;;;;;;32.67;8.68;;;17.40;99.90;;;;;;5030508;28;20056;-63
2023/03/10 12:35:26;;;;;;;29.13;8.27;;;17.30;99.90;;;;;;5029205;28;20056;-62
2023/03/10 12:38:50;;;;;;;32.97;7.93;;;17.30;99.90;;;;;;5029758;28;20053;-61
2023/03/10 12:41:56;;;;;;;31.00;7.50;;;17.20;99.90;;;;;;5030468;28;20068;-61
2023/03/10 12:45:24;;;;;;;40.35;8.35;;;17.20;99.90;;;;;;5030150;28;20053;-62
2023/03/10 12:48:31;;;;;;;32.63;8.18;;;17.20;99.90;;;;;;5029453;28;20044;-61
2023/03/10 12:51:39;;;;;;;30.95;9.02;;;17.20;99.90;;;;;;5030039;28;20037;-62
2023/03/10 12:54:46;;;;;;;30.25;7.93;;;17.30;99.90;;;;;;5033406;28;20045;-61
2023/03/10 12:57:57;;;;;;;24.08;6.95;;;17.40;99.90;;;;;;5033849;28;20116;-62
2023/03/10 13:01:06;;;;;;;24.30;7.28;;;17.50;99.90;;;;;;5033825;28;20056;-61
2023/03/10 13:04:15;;;;;;;32.70;8.35;;;17.60;99.90;;;;;;5033525;28;20040;-62
2023/03/10 13:07:19;;;;;;;29.08;6.95;;;17.60;99.90;;;;;;5033686;28;20049;-62
2023/03/10 13:10:26;;;;;;;33.70;7.88;;;17.60;99.90;;;;;;5033523;28;20049;-62
2023/03/10 13:13:35;;;;;;;33.67;7.38;;;17.50;99.90;;;;;;5033480;28;20048;-62
2023/03/10 13:16:40;;;;;;;38.33;8.38;;;17.40;99.90;;;;;;5033468;28;20516;-62
2023/03/10 13:19:56;;;;;;;39.83;7.70;;;17.50;99.90;;;;;;5033193;28;20060;-60
2023/03/10 13:23:01;;;;;;;40.60;7.50;;;17.50;99.90;;;;;;5033095;28;20045;-64
2023/03/10 13:26:13;;;;;;;35.65;8.05;;;17.50;99.90;;;;;;5033053;28;20044;-62
2023/03/10 13:29:19;;;;;;;32.15;7.25;;;17.60;99.90;;;;;;5033163;28;20036;-63
2023/03/10 13:32:24;;;;;;;33.92;7.70;;;17.50;99.90;;;;;;5033077;28;20060;-63
2023/03/10 13:35:30;;;;;;;37.65;8.15;;;17.50;99.90;;;;;;5033224;28;20048;-63
2023/03/10 13:38:34;;;;;;;39.33;8.00;;;17.60;99.90;;;;;;5033062;28;20049;-64
2023/03/10 13:41:47;;;;;;;48.30;7.70;;;17.50;99.90;;;;;;5033212;28;20056;-64
2023/03/10 13:44:53;;;;;;;25.75;5.93;;;17.50;99.90;;;;;;5033197;28;20056;-63
2023/03/10 13:48:02;;;;;;;39.55;7.20;;;17.50;99.90;;;;;;5033107;28;20485;-64
2023/03/10 13:51:07;;;;;;;25.63;6.03;;;17.50;99.90;;;;;;5032021;28;20406;-63
2023/03/10 13:54:11;;;;;;;17.85;4.28;;;17.40;99.90;;;;;;5033052;28;20044;-65
2023/03/10 13:57:24;;;;;;;20.00;4.55;;;17.40;99.90;;;;;;5032691;28;20044;-64
2023/03/10 14:00:28;;;;;;;23.95;4.70;;;17.40;99.90;;;;;;5032493;28;20139;-65
2023/03/10 14:03:34;;;;;;;14.77;4.47;;;17.40;99.90;;;;;;5032278;28;20044;-65
2023/03/10 14:06:38;;;;;;;21.40;5.15;;;17.40;99.90;;;;;;5032336;28;20073;-66
2023/03/10 14:09:41;;;;;;;21.98;5.05;;;17.40;99.90;;;;;;5031798;28;20045;-64
2023/03/10 14:12:48;;;;;;;33.70;6.20;;;17.40;99.90;;;;;;5032017;28;20621;-62
2023/03/10 14:15:53;;;;;;;23.92;6.13;;;17.40;99.90;;;;;;5032258;28;20056;-64
2023/03/10 14:18:58;;;;;;;23.23;5.40;;;17.40;99.90;;;;;;5032331;28;20040;-63
2023/03/10 14:22:02;;;;;;;17.77;5.35;;;17.30;99.90;;;;;;5032008;28;20520;-65
2023/03/10 14:25:15;;;;;;;27.70;4.80;;;17.40;99.90;;;;;;5032137;28;20053;-65
2023/03/10 14:28:30;;;;;;;20.77;4.80;;;17.50;99.90;;;;;;5032045;28;20055;-63
2023/03/10 14:31:34;;;;;;;19.50;4.30;;;17.50;99.90;;;;;;5032090;28;20064;-65
2023/03/10 14:34:38;;;;;;;23.25;4.32;;;17.50;99.90;;;;;;5032242;28;20044;-65
2023/03/10 14:37:42;;;;;;;34.22;5.07;;;17.50;99.90;;;;;;5031939;28;20045;-63
2023/03/10 14:40:52;;;;;;;23.73;4.40;;;17.50;99.90;;;;;;5031598;28;20060;-64
2023/03/10 14:43:58;;;;;;;30.17;4.72;;;17.50;99.90;;;;;;5031797;28;20492;-64
2023/03/10 14:47:02;;;;;;;19.60;4.07;;;17.60;99.90;;;;;;5030899;28;20041;-66
2023/03/10 14:50:08;;;;;;;26.83;3.85;;;17.60;99.90;;;;;;5029991;28;20547;-64
2023/03/10 14:53:15;;;;;;;37.50;5.07;;;17.70;99.60;;;;;;5031504;28;20068;-65
2023/03/10 14:56:20;;;;;;;23.08;5.25;;;17.80;99.70;;;;;;5030958;28;20044;-62
2023/03/10 14:59:29;;;;;;;23.10;4.25;;;17.80;99.50;;;;;;5031450;28;20519;-65
2023/03/10 15:02:32;;;;;;;26.52;4.18;;;17.80;99.00;;;;;;5031147;28;20374;-65
2023/03/10 15:05:37;;;;;;;36.28;5.60;;;17.80;99.10;;;;;;5031015;28;20397;-63
2023/03/10 15:08:41;;;;;;;40.35;5.57;;;17.70;98.70;;;;;;5030917;28;20052;-64
2023/03/10 15:11:45;;;;;;;36.97;5.70;;;17.70;98.60;;;;;;5030884;28;20147;-65
2023/03/10 15:14:52;;;;;;;34.88;6.45;;;17.60;98.80;;;;;;5030883;28;20393;-63
2023/03/10 15:17:56;;;;;;;31.08;4.60;;;17.70;99.10;;;;;;5030485;28;20044;-65
2023/03/10 15:21:02;;;;;;;30.35;5.40;;;17.70;98.70;;;;;;5030932;28;20113;-65
2023/03/10 15:24:07;;;;;;;26.33;4.40;;;17.70;98.90;;;;;;5031032;28;20049;-64
2023/03/10 15:27:11;;;;;;;34.78;5.15;;;17.70;98.50;;;;;;5031008;28;20085;-64
2023/03/10 15:30:20;;;;;;;34.33;4.78;;;17.70;98.50;;;;;;5031098;28;20401;-63
2023/03/10 15:33:23;;;;;;;32.63;4.78;;;17.60;97.90;;;;;;5029882;28;20060;-64
2023/03/10 15:36:27;;;;;;;37.17;5.68;;;17.60;98.30;;;;;;5030985;28;20152;-64
2023/03/10 15:39:33;;;;;;;32.83;4.78;;;17.60;98.10;;;;;;5030690;28;20056;-65
2023/03/10 15:42:37;;;;;;;27.35;4.57;;;17.60;98.20;;;;;;5030981;28;20045;-64
2023/03/10 15:45:50;;;;;;;36.90;5.82;;;17.50;97.60;;;;;;5030432;28;20258;-64
2023/03/10 15:48:55;;;;;;;22.88;4.35;;;17.50;97.30;;;;;;5029425;28;20040;-62
2023/03/10 15:51:58;;;;;;;27.77;4.68;;;17.50;96.30;;;;;;5029692;28;20049;-63
2023/03/10 15:55:04;;;;;;;32.45;4.85;;;17.40;96.80;;;;;;5030313;28;20465;-64
2023/03/10 15:58:09;;;;;;;31.60;4.85;;;17.40;96.50;;;;;;5030277;28;20045;-63
2023/03/10 16:01:16;;;;;;;22.27;4.35;;;17.40;96.50;;;;;;5030004;28;20053;-62